This is the latest recevied weather packets stored in our database for station/object HB9TJR-8. If no packets are shown the sender has not sent any weather packets the latest 10 day(s).
| Time | Temp. | Humidity | Pressure | Rain* | Wind** | Luminosity | Snow |
|---|---|---|---|---|---|---|---|
| 1787864186 | 24.44° C | 67% | 961.4 hPa | 0 mm | - | - | - |
| 1787863385 | 24.44° C | 67% | 961.3 hPa | 0 mm | - | - | - |
| 1787862585 | 25° C | 65% | 961.4 hPa | 0 mm | - | - | - |
| 1787861783 | 25° C | 65% | 961.2 hPa | 0 mm | - | - | - |
| 1787860983 | 25° C | 65% | 961.1 hPa | 0 mm | - | - | - |
| 1787860181 | 25° C | 65% | 961.1 hPa | 0 mm | - | - | - |
| 1787859380 | 25.56° C | 65% | 961 hPa | 0 mm | - | - | - |
| 1787858579 | 25.56° C | 65% | 960.9 hPa | 0 mm | - | - | - |
| 1787857778 | 25.56° C | 65% | 961 hPa | 0 mm | - | - | - |
| 1787856977 | 25.56° C | 64% | 960.8 hPa | 0 mm | - | - | - |
| 1787856176 | 26.11° C | 63% | 960.7 hPa | 0 mm | - | - | - |
| 1787855375 | 26.11° C | 62% | 960.7 hPa | 0 mm | - | - | - |
| 1787854574 | 26.67° C | 59% | 960.6 hPa | 0 mm | - | - | - |
| 1787839536 | 28.89° C | 58% | 961.9 hPa | 0 mm | - | - | - |
| 1787838735 | 28.89° C | 58% | 962 hPa | 0 mm | - | - | - |
| 1787837934 | 28.89° C | 59% | 962.2 hPa | 0 mm | - | - | - |
| 1787837133 | 28.89° C | 59% | 962.3 hPa | 0 mm | - | - | - |
| 1787836332 | 28.33° C | 60% | 962.4 hPa | 0 mm | - | - | - |
| 1787835531 | 28.33° C | 60% | 962.4 hPa | 0 mm | - | - | - |
| 1787834729 | 28.33° C | 61% | 962.3 hPa | 0 mm | - | - | - |
| 1787833928 | 28.33° C | 59% | 962.3 hPa | 0 mm | - | - | - |
| 1787833128 | 28.33° C | 57% | 962.3 hPa | 0 mm | - | - | - |
| 1787832326 | 28.33° C | 56% | 962.4 hPa | 0 mm | - | - | - |
| 1787831525 | 28.33° C | 56% | 962.3 hPa | 0 mm | - | - | - |
| 1787830724 | 28.33° C | 57% | 962.4 hPa | 0 mm | - | - | - |
* Rain latest hour (hover to see other rain measurements)
** Current wind speed in m/s (hover to see current wind gust speed)